createdAt,value
2023-02-03T00:01:12.673Z,4.53
2023-02-03T00:03:41.903Z,5.22
2023-02-03T00:06:11.132Z,3.33
2023-02-03T00:08:40.382Z,5.43
2023-02-03T00:11:09.695Z,2.95
2023-02-03T00:13:38.951Z,3.85
2023-02-03T00:16:08.585Z,5.93
2023-02-03T00:18:39.358Z,4.25
2023-02-03T00:21:08.643Z,3.15
2023-02-03T00:23:37.683Z,3.05
2023-02-03T00:26:09.626Z,3.30
2023-02-03T00:28:39.477Z,3.80
2023-02-03T00:31:15.987Z,3.67
2023-02-03T00:33:46.581Z,4.68
2023-02-03T00:36:16.192Z,5.45
2023-02-03T00:38:45.265Z,2.80
2023-02-03T00:41:14.302Z,3.58
2023-02-03T00:43:43.411Z,3.25
2023-02-03T00:46:12.783Z,3.97
2023-02-03T00:48:41.879Z,3.67
2023-02-03T00:51:12.506Z,3.67
2023-02-03T00:53:41.703Z,3.00
2023-02-03T00:56:12.891Z,2.20
2023-02-03T00:58:42.199Z,4.55
2023-02-03T01:01:11.480Z,3.75
2023-02-03T01:03:40.775Z,3.40
2023-02-03T01:06:13.227Z,4.38
2023-02-03T01:08:42.940Z,4.03
2023-02-03T01:11:14.325Z,2.97
2023-02-03T01:13:43.422Z,4.25
2023-02-03T01:16:14.924Z,3.55
2023-02-03T01:18:45.184Z,3.97
2023-02-03T01:21:18.085Z,4.78
2023-02-03T01:23:47.230Z,4.72
2023-02-03T01:26:17.811Z,2.28
2023-02-03T01:28:52.451Z,3.83
2023-02-03T01:31:24.543Z,2.97
2023-02-03T01:33:54.853Z,3.40
2023-02-03T01:36:27.487Z,2.58
2023-02-03T01:38:57.340Z,3.88
2023-02-03T01:41:29.610Z,3.15
2023-02-03T01:44:00.475Z,2.53
2023-02-03T01:46:36.603Z,5.10
2023-02-03T01:49:10.596Z,2.83
2023-02-03T01:51:44.788Z,2.00
2023-02-03T01:54:19.536Z,3.10
2023-02-03T01:56:52.843Z,5.28
2023-02-03T01:59:24.364Z,2.83
2023-02-03T02:01:55.643Z,2.85
2023-02-03T02:04:30.073Z,2.83
2023-02-03T02:07:01.196Z,3.03
2023-02-03T02:09:30.788Z,3.55
2023-02-03T02:11:59.905Z,2.95
2023-02-03T02:14:29.196Z,2.70
2023-02-03T02:17:07.409Z,3.05
2023-02-03T02:20:20.954Z,5.37
2023-02-03T02:23:12.158Z,4.10
2023-02-03T02:25:56.911Z,3.97
2023-02-03T02:29:04.644Z,3.85
2023-02-03T02:32:06.264Z,3.58
2023-02-03T02:34:48.475Z,3.27
2023-02-03T02:37:27.592Z,2.92
2023-02-03T02:40:06.056Z,3.45
2023-02-03T02:42:42.347Z,2.92
2023-02-03T02:45:16.894Z,3.67
2023-02-03T02:47:48.133Z,3.40
2023-02-03T02:50:24.834Z,2.50
2023-02-03T02:52:55.649Z,2.83
2023-02-03T02:55:29.475Z,4.00
2023-02-03T02:58:06.279Z,2.75
2023-02-03T03:00:37.177Z,3.28
2023-02-03T03:03:15.914Z,2.20
2023-02-03T03:05:51.067Z,2.75
2023-02-03T03:08:28.133Z,4.55
2023-02-03T03:10:59.520Z,3.47
2023-02-03T03:13:33.957Z,3.35
2023-02-03T03:16:07.722Z,3.40
2023-02-03T03:18:44.021Z,3.05
2023-02-03T03:21:19.389Z,3.93
2023-02-03T03:23:51.042Z,3.60
2023-02-03T03:26:29.049Z,2.50
2023-02-03T03:29:07.138Z,3.70
2023-02-03T03:31:36.570Z,3.63
2023-02-03T03:34:07.390Z,1.93
2023-02-03T03:36:43.400Z,3.73
2023-02-03T03:39:18.843Z,2.58
2023-02-03T03:41:57.806Z,3.03
2023-02-03T03:44:31.534Z,3.00
2023-02-03T03:47:07.849Z,3.87
2023-02-03T03:49:41.296Z,3.10
2023-02-03T03:52:12.507Z,2.35
2023-02-03T03:54:43.864Z,3.37
2023-02-03T03:57:16.818Z,3.53
2023-02-03T03:59:50.001Z,3.42
2023-02-03T04:02:21.680Z,3.78
2023-02-03T04:04:53.252Z,2.88
2023-02-03T04:07:22.521Z,3.37
2023-02-03T04:09:51.568Z,3.22
2023-02-03T04:12:24.721Z,4.22
2023-02-03T04:14:53.828Z,4.03
2023-02-03T04:17:22.922Z,3.53
2023-02-03T04:19:53.472Z,2.92
2023-02-03T04:22:22.698Z,3.47
2023-02-03T04:24:51.903Z,3.30
2023-02-03T04:27:21.046Z,3.63
2023-02-03T04:29:50.841Z,3.25
2023-02-03T04:32:20.091Z,4.38
2023-02-03T04:34:49.355Z,2.70
2023-02-03T04:37:21.199Z,2.65
2023-02-03T04:39:51.540Z,6.10
2023-02-03T04:42:20.647Z,3.90
2023-02-03T04:44:49.832Z,2.80
2023-02-03T04:47:19.899Z,2.50
2023-02-03T04:49:48.977Z,2.70
2023-02-03T04:52:19.477Z,2.72
2023-02-03T04:54:48.565Z,3.13
2023-02-03T04:57:17.610Z,3.45
2023-02-03T04:59:46.687Z,2.77
2023-02-03T05:02:15.758Z,2.33
2023-02-03T05:04:45.094Z,3.00
2023-02-03T05:07:14.296Z,3.13
2023-02-03T05:09:44.813Z,3.00
2023-02-03T05:12:13.997Z,2.80
2023-02-03T05:14:43.079Z,3.30
2023-02-03T05:17:12.292Z,3.33
2023-02-03T05:19:41.361Z,1.88
2023-02-03T05:22:10.410Z,2.97
2023-02-03T05:24:39.578Z,2.72
2023-02-03T05:27:10.066Z,3.80
2023-02-03T05:29:39.202Z,3.27
2023-02-03T05:32:08.388Z,4.00
2023-02-03T05:34:37.548Z,2.70
2023-02-03T05:37:06.654Z,2.55
2023-02-03T05:39:35.830Z,2.28
2023-02-03T05:42:04.504Z,2.90
2023-02-03T05:44:35.095Z,2.58
2023-02-03T05:47:04.293Z,4.45
2023-02-03T05:49:33.338Z,3.10
2023-02-03T05:52:02.458Z,2.40
2023-02-03T05:54:31.834Z,2.27
2023-02-03T05:57:01.027Z,3.13
2023-02-03T05:59:30.297Z,3.17
2023-02-03T06:02:00.809Z,2.73
2023-02-03T06:04:29.933Z,2.40
2023-02-03T06:06:58.955Z,3.20
2023-02-03T06:09:28.050Z,6.53
2023-02-03T06:11:57.087Z,19.87
2023-02-03T06:14:26.218Z,12.20
2023-02-03T06:16:55.560Z,9.15
2023-02-03T06:19:26.116Z,6.40
2023-02-03T06:21:55.204Z,5.90
2023-02-03T06:24:24.246Z,5.20
2023-02-03T06:26:53.417Z,5.23
2023-02-03T06:29:22.510Z,8.63
2023-02-03T06:31:51.779Z,7.23
2023-02-03T06:34:20.900Z,7.73
2023-02-03T06:36:51.389Z,4.27
2023-02-03T06:39:20.493Z,4.60
2023-02-03T06:41:51.451Z,12.50
2023-02-03T06:44:20.710Z,12.30
2023-02-03T06:46:50.855Z,14.77
2023-02-03T06:49:20.398Z,18.07
2023-02-03T06:51:52.487Z,13.07
2023-02-03T06:54:21.683Z,8.23
2023-02-03T06:56:50.736Z,9.43
2023-02-03T06:59:19.832Z,9.07
2023-02-03T07:01:48.871Z,13.90
2023-02-03T07:04:18.246Z,15.83
2023-02-03T07:06:47.346Z,17.33
2023-02-03T07:09:18.219Z,7.37
2023-02-03T07:11:47.349Z,14.43
2023-02-03T07:14:16.583Z,8.73
2023-02-03T07:16:47.508Z,12.40
2023-02-03T07:19:17.904Z,6.60
2023-02-03T07:21:47.272Z,12.87
2023-02-03T07:24:18.193Z,7.78
2023-02-03T07:26:47.369Z,8.85
2023-02-03T07:29:16.454Z,7.57
2023-02-03T07:31:46.400Z,75.80
2023-02-03T07:34:15.979Z,30.20
2023-02-03T07:36:45.203Z,37.17
2023-02-03T07:39:14.335Z,40.35
2023-02-03T07:41:45.634Z,34.25
2023-02-03T07:44:15.930Z,30.20
2023-02-03T07:46:45.958Z,26.73
2023-02-03T07:49:15.570Z,27.15
2023-02-03T07:51:44.661Z,23.08
2023-02-03T07:54:15.437Z,23.50
2023-02-03T07:56:46.052Z,21.50
2023-02-03T07:59:15.192Z,23.70
2023-02-03T08:01:44.439Z,21.20
2023-02-03T08:04:16.625Z,21.90
2023-02-03T08:06:46.108Z,23.77
2023-02-03T08:09:15.189Z,22.02
2023-02-03T08:11:45.798Z,19.13
2023-02-03T08:14:14.910Z,21.15
2023-02-03T08:16:44.056Z,18.98
2023-02-03T08:19:13.719Z,17.88
2023-02-03T08:21:42.871Z,16.50
2023-02-03T08:24:13.484Z,14.80
2023-02-03T08:26:42.672Z,15.93
2023-02-03T08:29:13.218Z,13.70
2023-02-03T08:31:43.845Z,13.15
2023-02-03T08:34:13.096Z,12.43
2023-02-03T08:36:43.191Z,12.88
2023-02-03T08:39:13.490Z,14.25
2023-02-03T08:41:42.641Z,13.80
2023-02-03T08:44:14.003Z,14.70
2023-02-03T08:46:44.362Z,14.20
2023-02-03T08:49:13.842Z,14.05
2023-02-03T08:51:44.620Z,11.80
2023-02-03T08:54:13.799Z,12.32
2023-02-03T08:56:43.373Z,11.27
2023-02-03T08:59:14.394Z,12.73
2023-02-03T09:01:46.079Z,10.73
2023-02-03T09:04:15.487Z,10.60
2023-02-03T09:06:44.753Z,11.13
2023-02-03T09:09:14.092Z,11.10
2023-02-03T09:11:44.276Z,10.10
2023-02-03T09:14:15.231Z,10.75
2023-02-03T09:16:44.546Z,10.00
2023-02-03T09:19:14.172Z,8.15
2023-02-03T09:21:47.686Z,9.48
2023-02-03T09:24:17.809Z,11.80
2023-02-03T09:26:47.372Z,7.18
2023-02-03T09:29:18.091Z,8.27
2023-02-03T09:31:48.560Z,7.07
2023-02-03T09:34:18.060Z,9.10
2023-02-03T09:36:47.826Z,9.35
2023-02-03T09:39:17.279Z,8.20
2023-02-03T09:42:18.215Z,5.25
2023-02-03T09:45:00.492Z,7.07
2023-02-03T09:47:35.375Z,13.98
2023-02-03T09:50:12.206Z,9.93
2023-02-03T09:52:44.417Z,5.88
2023-02-03T09:55:26.423Z,9.43
2023-02-03T09:58:02.448Z,10.07
2023-02-03T10:00:36.999Z,5.15
2023-02-03T10:03:10.621Z,5.45
2023-02-03T10:06:09.394Z,5.05
2023-02-03T10:08:53.813Z,5.85
2023-02-03T10:11:40.344Z,4.55
2023-02-03T10:14:22.818Z,6.07
2023-02-03T10:17:06.852Z,5.25
2023-02-03T10:19:43.486Z,4.57
2023-02-03T10:22:17.949Z,4.43
2023-02-03T10:24:52.161Z,7.45
2023-02-03T10:27:23.060Z,5.75
2023-02-03T10:29:59.030Z,4.07
2023-02-03T10:32:30.582Z,3.92
2023-02-03T10:35:00.137Z,3.95
2023-02-03T10:37:33.817Z,3.17
2023-02-03T10:40:04.164Z,4.00
2023-02-03T10:42:49.630Z,6.63
2023-02-03T10:45:19.701Z,7.00
2023-02-03T10:47:53.896Z,4.35
2023-02-03T10:50:31.606Z,3.50
2023-02-03T10:53:23.376Z,4.93
2023-02-03T10:56:02.597Z,4.43
2023-02-03T10:58:34.328Z,6.47
2023-02-03T11:01:11.743Z,7.05
2023-02-03T11:03:44.806Z,9.05
2023-02-03T11:06:16.035Z,5.03
2023-02-03T11:08:47.481Z,4.60
2023-02-03T11:11:23.846Z,4.15
2023-02-03T11:13:56.062Z,4.28
2023-02-03T11:16:25.978Z,2.83
2023-02-03T11:19:02.969Z,3.95
2023-02-03T11:21:34.588Z,7.88
2023-02-03T11:24:07.495Z,2.88
2023-02-03T11:26:41.307Z,3.28
2023-02-03T11:29:20.391Z,4.45
2023-02-03T11:31:53.260Z,4.60
2023-02-03T11:34:28.731Z,4.43
2023-02-03T11:36:58.194Z,3.72
2023-02-03T11:39:29.468Z,4.05
2023-02-03T11:41:58.756Z,5.03
2023-02-03T11:44:31.548Z,4.18
2023-02-03T11:47:04.969Z,7.40
2023-02-03T11:50:04.450Z,6.93
2023-02-03T11:53:09.084Z,7.75
2023-02-03T11:55:48.250Z,6.15
2023-02-03T11:58:39.347Z,5.35
2023-02-03T12:01:18.757Z,7.00
2023-02-03T12:04:28.612Z,4.18
2023-02-03T12:07:22.740Z,7.88
2023-02-03T12:10:01.397Z,4.05
2023-02-03T12:12:52.573Z,5.10
2023-02-03T12:15:37.744Z,4.40
2023-02-03T12:18:23.087Z,4.50
2023-02-03T12:21:08.909Z,7.07
2023-02-03T12:23:53.634Z,10.80
2023-02-03T12:26:25.366Z,8.70
2023-02-03T12:29:03.531Z,5.38
2023-02-03T12:31:40.876Z,6.95
2023-02-03T12:34:19.232Z,8.77
2023-02-03T12:36:54.717Z,5.97
2023-02-03T12:39:31.231Z,4.28
2023-02-03T12:42:05.770Z,4.07
2023-02-03T12:44:40.616Z,5.18
2023-02-03T12:47:16.148Z,6.18
2023-02-03T12:49:50.049Z,5.20
2023-02-03T12:52:25.326Z,5.25
2023-02-03T12:55:02.794Z,4.53
2023-02-03T12:57:39.461Z,3.65
2023-02-03T13:00:22.407Z,4.03
2023-02-03T13:03:03.763Z,4.30
2023-02-03T13:05:42.524Z,3.78
2023-02-03T13:08:18.427Z,3.78
2023-02-03T13:10:54.192Z,3.72
2023-02-03T13:13:32.819Z,3.63
2023-02-03T13:16:03.271Z,3.60
2023-02-03T13:18:36.599Z,2.78
2023-02-03T13:21:06.341Z,3.42
2023-02-03T13:23:36.072Z,4.03
2023-02-03T13:26:48.849Z,4.47
2023-02-03T13:30:00.547Z,12.88
2023-02-03T13:32:44.951Z,9.90
2023-02-03T13:35:40.965Z,14.65
2023-02-03T13:38:49.293Z,14.35
2023-02-03T13:41:28.694Z,10.15
2023-02-03T13:43:59.856Z,8.55
2023-02-03T13:46:32.362Z,10.80
2023-02-03T13:49:04.178Z,8.50
2023-02-03T13:51:36.831Z,9.45
2023-02-03T13:54:10.094Z,4.63
2023-02-03T13:56:41.218Z,5.07
2023-02-03T13:59:32.208Z,6.72
2023-02-03T14:02:49.218Z,5.22
2023-02-03T14:05:41.946Z,6.28
2023-02-03T14:08:53.531Z,5.28
2023-02-03T14:11:45.906Z,5.05
2023-02-03T14:14:57.295Z,4.97
2023-02-03T14:17:58.980Z,11.40
2023-02-03T14:20:53.781Z,6.72
2023-02-03T14:23:35.449Z,6.32
2023-02-03T14:26:04.882Z,5.57
2023-02-03T14:28:43.123Z,7.38
2023-02-03T14:31:17.192Z,6.93
2023-02-03T14:34:06.181Z,4.88
2023-02-03T14:36:45.939Z,5.25
2023-02-03T14:39:55.503Z,4.90
2023-02-03T14:42:50.481Z,5.13
2023-02-03T14:45:46.731Z,3.92
2023-02-03T14:48:37.219Z,3.13
2023-02-03T14:51:17.068Z,3.72
2023-02-03T14:53:58.065Z,4.32
2023-02-03T14:56:59.120Z,2.53
2023-02-03T14:59:37.256Z,5.95
2023-02-03T15:02:15.063Z,4.22
2023-02-03T15:04:45.844Z,2.75
2023-02-03T15:07:39.355Z,3.90
2023-02-03T15:10:17.067Z,4.03
2023-02-03T15:12:48.984Z,2.35
2023-02-03T15:15:23.987Z,5.55
2023-02-03T15:17:56.120Z,4.57
2023-02-03T15:20:35.882Z,2.10
2023-02-03T15:23:19.714Z,2.95
2023-02-03T15:25:55.384Z,3.05
2023-02-03T15:28:26.474Z,7.50
2023-02-03T15:31:00.261Z,17.42
2023-02-03T15:33:32.916Z,20.95
2023-02-03T15:36:06.318Z,30.40
2023-02-03T15:38:39.863Z,9.20
2023-02-03T15:41:14.163Z,7.90
2023-02-03T15:43:45.922Z,7.63
2023-02-03T15:46:19.968Z,4.70
2023-02-03T15:48:54.415Z,10.63
2023-02-03T15:51:29.085Z,7.95
2023-02-03T15:54:01.859Z,5.20
2023-02-03T15:56:37.998Z,10.73
2023-02-03T15:59:16.767Z,6.00
2023-02-03T16:01:48.723Z,8.63
2023-02-03T16:04:19.808Z,8.38
2023-02-03T16:06:51.581Z,8.30
2023-02-03T16:09:32.594Z,7.05
2023-02-03T16:12:07.259Z,6.18
2023-02-03T16:14:37.940Z,4.97
2023-02-03T16:17:07.394Z,8.30
2023-02-03T16:19:41.409Z,9.10
2023-02-03T16:22:31.662Z,9.52
2023-02-03T16:25:15.217Z,5.90
2023-02-03T16:27:46.581Z,9.75
2023-02-03T16:30:42.489Z,12.00
2023-02-03T16:33:35.196Z,8.68
2023-02-03T16:36:30.163Z,12.15
2023-02-03T16:39:20.418Z,11.00
2023-02-03T16:42:07.391Z,12.88
2023-02-03T16:44:54.088Z,17.15
2023-02-03T16:47:44.039Z,25.80
2023-02-03T16:50:38.930Z,23.17
2023-02-03T16:53:14.646Z,18.30
2023-02-03T16:55:44.894Z,21.73
2023-02-03T16:58:14.301Z,23.98
2023-02-03T17:00:45.815Z,11.07
2023-02-03T17:03:17.008Z,16.77
2023-02-03T17:05:47.910Z,17.73
2023-02-03T17:08:23.275Z,18.80
2023-02-03T17:10:53.027Z,22.00
2023-02-03T17:13:24.652Z,21.70
2023-02-03T17:15:54.728Z,16.67
2023-02-03T17:18:24.460Z,26.52
2023-02-03T17:20:54.057Z,23.35
2023-02-03T17:23:24.852Z,19.42
2023-02-03T17:25:54.091Z,20.17
2023-02-03T17:28:23.367Z,19.85
2023-02-03T17:30:58.587Z,22.35
2023-02-03T17:33:29.355Z,21.15
2023-02-03T17:36:06.974Z,28.38
2023-02-03T17:55:24.364Z,61.05
2023-02-03T17:57:53.895Z,126.30
2023-02-03T18:00:23.208Z,130.27
2023-02-03T18:02:53.146Z,65.47
2023-02-03T18:05:22.526Z,65.78
2023-02-03T18:07:51.801Z,56.90
2023-02-03T18:10:21.171Z,41.30
2023-02-03T18:12:51.838Z,37.55
2023-02-03T18:15:21.053Z,47.25
2023-02-03T18:17:50.237Z,46.67
2023-02-03T18:20:19.579Z,39.20
2023-02-03T18:22:48.722Z,33.58
2023-02-03T18:25:18.649Z,50.63
2023-02-03T18:27:47.879Z,45.90
2023-02-03T18:30:20.389Z,36.67
2023-02-03T18:32:52.943Z,25.50
2023-02-03T18:35:22.311Z,21.90
2023-02-03T18:37:51.858Z,28.00
2023-02-03T18:40:21.288Z,22.13
2023-02-03T18:42:50.469Z,22.70
2023-02-03T18:45:21.166Z,23.15
2023-02-03T18:47:50.366Z,17.60
2023-02-03T18:50:19.608Z,20.05
2023-02-03T18:52:48.763Z,19.33
2023-02-03T18:55:18.115Z,21.15
2023-02-03T18:57:47.784Z,15.88
2023-02-03T19:00:17.408Z,14.50
2023-02-03T19:02:50.556Z,12.77
2023-02-03T19:05:20.098Z,15.98
2023-02-03T19:07:49.371Z,16.20
2023-02-03T19:10:19.903Z,12.20
2023-02-03T19:12:49.936Z,24.63
2023-02-03T19:15:19.936Z,26.73
2023-02-03T19:17:50.965Z,33.63
2023-02-03T19:20:20.846Z,23.98
2023-02-03T19:22:50.474Z,20.13
2023-02-03T19:25:20.730Z,14.80
2023-02-03T19:27:50.512Z,18.35
2023-02-03T19:30:21.105Z,27.92
2023-02-03T19:32:52.040Z,15.30
2023-02-03T19:35:21.289Z,12.25
2023-02-03T19:37:50.578Z,13.80
2023-02-03T19:40:20.111Z,14.40
2023-02-03T19:42:50.198Z,13.93
2023-02-03T19:45:19.602Z,11.13
2023-02-03T19:47:48.944Z,9.60
2023-02-03T19:50:20.001Z,9.40
2023-02-03T19:52:49.719Z,11.52
2023-02-03T19:55:19.966Z,8.55
2023-02-03T19:57:50.246Z,7.47
2023-02-03T20:00:20.744Z,8.70
2023-02-03T20:02:50.536Z,12.13
2023-02-03T20:05:21.765Z,8.57
2023-02-03T20:07:52.705Z,5.90
2023-02-03T20:10:21.998Z,4.93
2023-02-03T20:12:51.993Z,7.72
2023-02-03T20:15:21.813Z,7.03
2023-02-03T20:17:51.065Z,6.57
2023-02-03T20:20:21.784Z,8.13
2023-02-03T20:22:51.360Z,7.60
2023-02-03T20:25:21.146Z,7.38
2023-02-03T20:27:50.332Z,5.93
2023-02-03T20:30:19.678Z,6.15
2023-02-03T20:32:48.882Z,5.80
2023-02-03T20:35:18.686Z,7.15
2023-02-03T20:37:49.270Z,5.35
2023-02-03T20:40:19.364Z,4.63
2023-02-03T20:42:48.684Z,9.88
2023-02-03T20:45:19.120Z,4.68
2023-02-03T20:47:48.578Z,4.93
2023-02-03T20:50:19.613Z,10.02
2023-02-03T20:52:51.505Z,5.95
2023-02-03T20:55:23.079Z,4.88
2023-02-03T20:57:54.994Z,5.63
2023-02-03T21:00:26.097Z,3.88
2023-02-03T21:03:12.941Z,3.67
2023-02-03T21:05:44.675Z,4.30
2023-02-03T21:08:16.393Z,4.43
2023-02-03T21:10:46.289Z,4.32
2023-02-03T21:13:23.688Z,3.67
2023-02-03T21:15:55.036Z,3.63
2023-02-03T21:18:34.402Z,4.10
2023-02-03T21:21:04.480Z,3.92
2023-02-03T21:23:41.238Z,3.42
2023-02-03T21:26:21.548Z,2.78
2023-02-03T21:28:52.824Z,4.35
2023-02-03T21:31:27.576Z,2.80
2023-02-03T21:33:58.443Z,6.60
2023-02-03T21:36:31.592Z,11.70
2023-02-03T21:39:02.842Z,4.53
2023-02-03T21:41:35.425Z,4.05
2023-02-03T21:44:25.099Z,5.47
2023-02-03T21:46:54.303Z,7.15
2023-02-03T21:49:23.561Z,53.70
2023-02-03T21:51:52.794Z,9.45
2023-02-03T21:54:28.410Z,6.05
2023-02-03T21:56:58.336Z,3.63
2023-02-03T21:59:30.351Z,2.42
2023-02-03T22:02:00.956Z,2.10
2023-02-03T22:04:31.314Z,3.95
2023-02-03T22:07:00.858Z,3.20
2023-02-03T22:09:31.432Z,3.72
2023-02-03T22:12:01.368Z,2.85
2023-02-03T22:14:30.672Z,2.35
2023-02-03T22:16:59.862Z,2.92
2023-02-03T22:19:29.067Z,2.10
2023-02-03T22:21:58.219Z,3.33
2023-02-03T22:24:27.389Z,3.03
2023-02-03T22:27:00.394Z,3.30
2023-02-03T22:29:29.594Z,3.65
2023-02-03T22:31:58.925Z,3.40
2023-02-03T22:34:28.182Z,2.15
2023-02-03T22:36:57.300Z,2.72
2023-02-03T22:39:26.517Z,5.15
2023-02-03T22:41:55.687Z,1.88
2023-02-03T22:44:26.279Z,2.67
2023-02-03T22:46:55.449Z,1.70
2023-02-03T22:49:24.613Z,2.03
2023-02-03T22:51:53.797Z,2.08
2023-02-03T22:54:22.979Z,3.83
2023-02-03T22:56:52.247Z,2.20
2023-02-03T22:59:21.577Z,2.15
2023-02-03T23:01:52.084Z,1.92
2023-02-03T23:04:23.051Z,1.50
2023-02-03T23:06:52.276Z,2.25
2023-02-03T23:09:21.470Z,3.05
2023-02-03T23:11:50.736Z,1.75
2023-02-03T23:14:19.930Z,2.33
2023-02-03T23:16:49.167Z,2.42
2023-02-03T23:19:19.846Z,1.85
2023-02-03T23:21:49.042Z,1.75
2023-02-03T23:24:18.206Z,4.03
2023-02-03T23:26:47.424Z,1.95
2023-02-03T23:29:16.574Z,2.58
2023-02-03T23:31:45.873Z,2.70
2023-02-03T23:34:32.794Z,3.03
2023-02-03T23:37:03.400Z,2.67
2023-02-03T23:39:32.663Z,3.80
2023-02-03T23:42:01.944Z,3.67
2023-02-03T23:44:31.211Z,3.33
2023-02-03T23:47:00.509Z,2.22
2023-02-03T23:49:29.665Z,4.30
2023-02-03T23:51:58.918Z,2.55
2023-02-03T23:54:29.661Z,2.33
2023-02-03T23:56:58.856Z,1.70
2023-02-03T23:59:28.097Z,2.60
